Terminal Aerodrome Forecast
Issued by NWS Portland, OR

Home | Current Version | Previous Version | Text Only | Print | Product List | Glossary On
Versions: 1 2 3 4 5 6 7 8 9 10 11 12 13 14 15 16 17 18 19 20 21 22 23 24 25 26 27 28 29 30 31 32 33 34 35 36 37 38
000
FTUS46 KPQR 101732
TAFHIO
TAF
KHIO 101732Z 1018/1118 00000KT 1/4SM FG VV002
     FM102000 VRB04KT 1 1/2SM BR OVC003
     FM102200 19004KT 3SM -RA BR BKN004 OVC040
     FM110200 20007KT 4SM -RA BR SCT004 BKN015 OVC035
     FM111200 19004KT 2SM -SHRA BR BKN004 OVC015=

USA.gov is the U.S. government's official web portal to all federal, state and local government web resources and services.